Governor's Harbour, The Bahamas
Current Conditions -  °F | °C
As of 8:00 AM on Wednesday 22 Oct 2014 (Local Time) from MYNN Reporting Station
Broken Clouds Broken Clouds  
Wind Chill: 77°   Ceiling: 3500
Heat Index: 78°   Visibility: 6mi
Dew Point: 75°   Wind: 0mph
Humidity: 94%   Direction: NA
Pressure: 29.96"   Gusts: NA
Location:  25.17°N, 76.23°W
Report Text: MYNN 221200Z 00000KT 9999 FEW018 BKN035 BKN100 25/24 A2996
Loading
Personal Weather Stations






























Interactive Weather Map
Tropical Storm Tracking
New forecast layout! Learn more

10-Day Weather Forecast

Advertisements
Track Severe Weather on mobile